METAR Data
IDs: Format: Raw Decoded Include TAF

Data at: 1505 UTC 21 Apr 2021

METAR for:KCKP (Cherokee Cnty, IA, US)
Text:KCKP 211455Z AUTO 33011KT 10SM CLR 00/M07 A3028 RMK AO2 T00011072
Temperature: 0.1°C ( 32°F)
Dewpoint: -7.2°C ( 19°F) [RH = 58%]
Pressure (altimeter):30.28 inches Hg (1025.5 mb)
Winds:from the NNW (330 degrees) at 13 MPH (11 knots; 5.7 m/s)
Visibility:10 or more sm (16+ km)
Ceiling:at least 12,000 feet AGL
Clouds:sky clear below 12,000 feet AGL
QC Flag:automated observation with no human augmentation